createdAt,value
2022-09-17T00:02:20.618Z,10.00
2022-09-17T00:04:48.207Z,10.00
2022-09-17T00:07:15.613Z,9.90
2022-09-17T00:09:42.921Z,9.90
2022-09-17T00:12:10.238Z,9.90
2022-09-17T00:14:37.239Z,9.90
2022-09-17T00:17:04.346Z,9.90
2022-09-17T00:19:31.347Z,9.90
2022-09-17T00:21:58.339Z,9.90
2022-09-17T00:24:25.342Z,9.90
2022-09-17T00:26:53.506Z,9.90
2022-09-17T00:29:20.526Z,9.90
2022-09-17T00:31:47.575Z,9.90
2022-09-17T00:34:14.611Z,9.90
2022-09-17T00:36:41.605Z,9.90
2022-09-17T00:39:09.118Z,9.90
2022-09-17T00:41:36.278Z,9.90
2022-09-17T00:44:22.045Z,9.90
2022-09-17T00:46:49.097Z,9.90
2022-09-17T00:49:16.100Z,9.90
2022-09-17T00:51:57.053Z,9.90
2022-09-17T00:54:26.696Z,9.90
2022-09-17T00:56:53.707Z,9.90
2022-09-17T00:59:22.352Z,9.90
2022-09-17T01:01:49.529Z,9.90
2022-09-17T01:04:47.668Z,9.80
2022-09-17T01:07:26.932Z,9.80
2022-09-17T01:09:56.040Z,9.80
2022-09-17T01:12:30.254Z,9.80
2022-09-17T01:15:02.280Z,9.80
2022-09-17T01:17:47.957Z,9.90
2022-09-17T01:20:25.590Z,9.90
2022-09-17T01:22:58.826Z,9.90
2022-09-17T01:25:29.812Z,9.90
2022-09-17T01:28:05.458Z,9.80
2022-09-17T01:30:35.487Z,9.80
2022-09-17T01:33:05.453Z,9.80
2022-09-17T01:35:32.468Z,9.80
2022-09-17T01:38:05.112Z,9.80
2022-09-17T01:40:32.363Z,9.80
2022-09-17T01:43:08.331Z,9.90
2022-09-17T01:45:44.255Z,9.90
2022-09-17T01:48:18.072Z,9.90
2022-09-17T01:50:51.228Z,9.80
2022-09-17T01:53:18.866Z,9.80
2022-09-17T01:55:45.871Z,9.80
2022-09-17T01:58:12.847Z,9.80
2022-09-17T02:00:41.581Z,9.80
2022-09-17T02:03:20.302Z,9.80
2022-09-17T02:06:07.367Z,9.80
2022-09-17T02:08:39.419Z,9.80
2022-09-17T02:11:10.053Z,9.80
2022-09-17T02:13:46.124Z,9.80
2022-09-17T02:16:17.739Z,9.80
2022-09-17T02:18:51.374Z,9.90
2022-09-17T02:21:38.646Z,9.90
2022-09-17T02:24:24.566Z,9.90
2022-09-17T02:27:08.051Z,9.80
2022-09-17T02:29:39.711Z,9.80
2022-09-17T02:32:06.799Z,9.90
2022-09-17T02:34:34.691Z,10.00
2022-09-17T02:37:01.778Z,10.00
2022-09-17T02:39:28.898Z,10.00
2022-09-17T02:42:08.115Z,9.90
2022-09-17T02:44:42.271Z,9.90
2022-09-17T02:47:16.889Z,9.90
2022-09-17T02:49:50.094Z,9.90
2022-09-17T02:52:35.708Z,9.80
2022-09-17T02:55:09.023Z,9.80
2022-09-17T02:57:40.520Z,9.80
2022-09-17T03:00:17.413Z,9.80
2022-09-17T03:02:48.744Z,9.70
2022-09-17T03:05:16.907Z,9.70
2022-09-17T03:07:43.907Z,9.70
2022-09-17T03:10:10.909Z,9.60
2022-09-17T03:12:38.515Z,9.60
2022-09-17T03:15:05.765Z,9.60
2022-09-17T03:17:32.762Z,9.60
2022-09-17T03:19:59.747Z,9.50
2022-09-17T03:22:26.846Z,9.40
2022-09-17T03:24:53.819Z,9.40
2022-09-17T03:27:20.836Z,9.40
2022-09-17T03:29:47.856Z,9.30
2022-09-17T03:32:14.851Z,9.30
2022-09-17T03:34:41.894Z,9.30
2022-09-17T03:37:08.923Z,9.30
2022-09-17T03:39:36.128Z,9.30
2022-09-17T03:42:03.133Z,9.20
2022-09-17T03:44:30.133Z,9.30
2022-09-17T03:46:57.184Z,9.30
2022-09-17T03:49:24.197Z,9.30
2022-09-17T03:51:51.395Z,9.40
2022-09-17T03:54:18.449Z,9.40
2022-09-17T03:56:45.450Z,9.40
2022-09-17T03:59:12.435Z,9.40
2022-09-17T04:01:39.704Z,9.40
2022-09-17T04:04:07.767Z,9.40
2022-09-17T04:06:34.795Z,9.40
2022-09-17T04:09:04.303Z,9.40
2022-09-17T04:11:31.289Z,9.40
2022-09-17T04:13:58.379Z,9.30
2022-09-17T04:16:25.546Z,9.30
2022-09-17T04:18:52.637Z,9.30
2022-09-17T04:21:19.782Z,9.20
2022-09-17T04:23:46.771Z,9.20
2022-09-17T04:26:14.484Z,9.20
2022-09-17T04:28:41.489Z,9.30
2022-09-17T04:31:08.555Z,9.30
2022-09-17T04:33:35.682Z,9.20
2022-09-17T04:36:02.878Z,9.20
2022-09-17T04:38:29.862Z,9.10
2022-09-17T04:40:57.344Z,9.10
2022-09-17T04:43:24.418Z,9.10
2022-09-17T04:45:51.458Z,9.10
2022-09-17T04:48:18.458Z,9.00
2022-09-17T04:50:45.552Z,9.00
2022-09-17T04:53:12.821Z,8.90
2022-09-17T04:55:39.810Z,8.90
2022-09-17T04:58:06.882Z,8.90
2022-09-17T05:00:35.331Z,8.90
2022-09-17T05:03:02.416Z,8.90
2022-09-17T05:05:29.892Z,8.90
2022-09-17T05:07:56.906Z,8.90
2022-09-17T05:10:24.002Z,9.00
2022-09-17T05:12:51.263Z,9.00
2022-09-17T05:15:18.257Z,8.90
2022-09-17T05:17:45.441Z,8.90
2022-09-17T05:20:12.572Z,8.90
2022-09-17T05:22:48.999Z,9.00
2022-09-17T05:25:16.294Z,9.00
2022-09-17T05:27:43.394Z,9.00
2022-09-17T05:30:10.529Z,8.90
2022-09-17T05:32:37.719Z,8.90
2022-09-17T05:35:06.034Z,8.90
2022-09-17T05:37:33.193Z,9.00
2022-09-17T05:40:00.276Z,8.90
2022-09-17T05:42:27.353Z,8.90
2022-09-17T05:44:54.336Z,9.00
2022-09-17T05:47:21.362Z,8.90
2022-09-17T05:49:48.378Z,8.90
2022-09-17T05:52:16.258Z,8.90
2022-09-17T05:54:43.391Z,8.90
2022-09-17T05:57:10.369Z,8.90
2022-09-17T05:59:37.388Z,8.90
2022-09-17T06:02:05.188Z,8.90
2022-09-17T06:04:34.906Z,9.00
2022-09-17T06:07:07.333Z,9.00
2022-09-17T06:09:37.657Z,9.00
2022-09-17T06:12:04.967Z,9.00
2022-09-17T06:14:32.048Z,9.00
2022-09-17T06:16:59.957Z,9.00
2022-09-17T06:19:27.329Z,9.10
2022-09-17T06:21:54.444Z,9.10
2022-09-17T06:24:21.442Z,9.10
2022-09-17T06:26:48.445Z,9.10
2022-09-17T06:29:15.560Z,9.10
2022-09-17T06:31:44.761Z,9.10
2022-09-17T06:34:12.199Z,9.10
2022-09-17T06:36:39.229Z,9.10
2022-09-17T06:39:06.412Z,9.10
2022-09-17T06:41:33.487Z,9.10
2022-09-17T06:44:02.113Z,9.10
2022-09-17T06:46:29.185Z,9.10
2022-09-17T06:48:56.290Z,9.00
2022-09-17T06:51:23.455Z,9.00
2022-09-17T06:53:50.555Z,9.00
2022-09-17T06:56:17.810Z,9.00
2022-09-17T06:58:44.844Z,9.00
2022-09-17T07:01:12.039Z,9.00
2022-09-17T07:03:39.235Z,9.10
2022-09-17T07:06:09.907Z,9.20
2022-09-17T07:08:37.771Z,9.20
2022-09-17T07:11:04.898Z,9.30
2022-09-17T07:13:31.923Z,9.40
2022-09-17T07:15:59.694Z,9.50
2022-09-17T07:18:26.869Z,9.70
2022-09-17T07:20:55.110Z,9.80
2022-09-17T07:23:22.884Z,10.00
2022-09-17T07:25:53.186Z,9.90
2022-09-17T07:28:20.494Z,10.10
2022-09-17T07:30:47.498Z,10.20
2022-09-17T07:33:15.287Z,10.30
2022-09-17T07:35:42.287Z,10.20
2022-09-17T07:38:09.415Z,10.20
2022-09-17T07:40:36.441Z,10.30
2022-09-17T07:43:03.474Z,10.40
2022-09-17T07:45:30.475Z,10.50
2022-09-17T07:47:57.481Z,10.60
2022-09-17T07:50:24.489Z,10.60
2022-09-17T07:52:51.791Z,10.60
2022-09-17T07:55:18.814Z,10.50
2022-09-17T07:57:50.436Z,10.40
2022-09-17T08:00:17.458Z,10.50
2022-09-17T08:02:44.631Z,10.50
2022-09-17T08:05:11.819Z,10.50
2022-09-17T08:07:38.819Z,10.50
2022-09-17T08:10:06.047Z,10.60
2022-09-17T08:12:33.061Z,10.70
2022-09-17T08:15:00.050Z,10.70
2022-09-17T08:17:27.059Z,10.70
2022-09-17T08:19:54.432Z,10.60
2022-09-17T08:22:21.722Z,10.70
2022-09-17T08:24:49.276Z,10.80
2022-09-17T08:27:16.295Z,10.70
2022-09-17T08:29:44.025Z,10.60
2022-09-17T08:32:11.043Z,10.60
2022-09-17T08:34:38.151Z,10.50
2022-09-17T08:37:05.187Z,10.50
2022-09-17T08:39:32.251Z,10.50
2022-09-17T08:42:09.329Z,10.50
2022-09-17T08:44:41.014Z,10.60
2022-09-17T08:47:15.642Z,10.50
2022-09-17T08:49:42.748Z,10.50
2022-09-17T08:52:12.839Z,10.50
2022-09-17T08:54:42.468Z,10.40
2022-09-17T08:57:22.240Z,10.30
2022-09-17T08:59:49.220Z,10.30
2022-09-17T09:02:25.612Z,10.30
2022-09-17T09:05:00.537Z,10.40
2022-09-17T09:07:31.671Z,10.40
2022-09-17T09:10:06.227Z,10.40
2022-09-17T09:12:34.045Z,10.50
2022-09-17T09:15:08.242Z,10.50
2022-09-17T09:17:38.536Z,10.50
2022-09-17T09:20:05.901Z,10.50
2022-09-17T09:22:40.311Z,10.50
2022-09-17T09:25:23.710Z,10.40
2022-09-17T09:27:53.750Z,10.50
2022-09-17T09:30:23.658Z,10.50
2022-09-17T09:32:59.574Z,10.50
2022-09-17T09:35:27.424Z,10.50
2022-09-17T09:37:57.203Z,10.60
2022-09-17T09:40:35.331Z,10.60
2022-09-17T09:43:04.289Z,10.60
2022-09-17T09:45:37.584Z,10.70
2022-09-17T09:48:06.684Z,10.80
2022-09-17T09:51:05.714Z,10.80
2022-09-17T09:53:35.803Z,10.70
2022-09-17T09:56:03.295Z,10.50
2022-09-17T09:58:37.290Z,10.40
2022-09-17T10:01:10.586Z,10.40
2022-09-17T10:03:38.224Z,10.30
2022-09-17T10:06:06.121Z,10.30
2022-09-17T10:08:36.647Z,10.20
2022-09-17T10:11:04.620Z,10.20
2022-09-17T10:13:32.465Z,10.10
2022-09-17T10:16:18.216Z,10.00
2022-09-17T10:18:45.649Z,9.90
2022-09-17T10:21:22.471Z,9.70
2022-09-17T10:23:49.868Z,9.60
2022-09-17T10:26:20.705Z,9.50
2022-09-17T10:28:49.516Z,9.40
2022-09-17T10:31:16.667Z,9.30
2022-09-17T10:33:53.674Z,9.20
2022-09-17T10:36:40.133Z,9.20
2022-09-17T10:39:19.426Z,9.20
2022-09-17T10:41:55.950Z,9.20
2022-09-17T10:44:24.042Z,9.20
2022-09-17T10:46:51.368Z,9.10
2022-09-17T10:49:34.846Z,9.20
2022-09-17T10:52:05.816Z,9.20
2022-09-17T10:54:40.593Z,9.20
2022-09-17T10:57:09.406Z,9.30
2022-09-17T10:59:42.710Z,9.30
2022-09-17T11:02:28.133Z,9.40
2022-09-17T11:05:07.990Z,9.40
2022-09-17T11:07:38.100Z,9.50
2022-09-17T11:10:23.928Z,9.50
2022-09-17T11:12:56.983Z,9.40
2022-09-17T11:15:42.218Z,9.30
2022-09-17T11:18:15.483Z,9.30
2022-09-17T11:20:48.758Z,9.30
2022-09-17T11:23:48.241Z,9.20
2022-09-17T11:26:32.718Z,9.10
2022-09-17T11:29:02.861Z,9.20
2022-09-17T11:31:35.816Z,9.30
2022-09-17T11:34:21.711Z,9.40
2022-09-17T11:37:08.980Z,9.40
2022-09-17T11:39:39.115Z,9.50
2022-09-17T11:42:07.303Z,9.60
2022-09-17T11:44:57.681Z,9.70
2022-09-17T11:47:32.689Z,9.80
2022-09-17T11:49:59.894Z,9.80
2022-09-17T11:52:27.675Z,9.80
2022-09-17T11:54:54.646Z,9.80
2022-09-17T11:57:34.715Z,9.80
2022-09-17T12:00:14.554Z,9.80
2022-09-17T12:02:52.249Z,9.80
2022-09-17T12:05:20.983Z,10.00
2022-09-17T12:08:09.274Z,10.20
2022-09-17T12:10:58.267Z,10.50
2022-09-17T12:13:35.503Z,10.60
2022-09-17T12:16:08.738Z,10.60
2022-09-17T12:18:52.852Z,10.40
2022-09-17T12:21:21.567Z,10.50
2022-09-17T12:23:59.935Z,10.30
2022-09-17T12:26:42.198Z,10.10
2022-09-17T12:29:28.091Z,10.00
2022-09-17T12:32:13.851Z,9.90
2022-09-17T12:34:59.595Z,9.80
2022-09-17T12:37:45.522Z,9.80
2022-09-17T12:40:25.240Z,9.80
2022-09-17T12:43:11.322Z,9.80
2022-09-17T12:45:57.077Z,9.80
2022-09-17T12:48:57.047Z,9.80
2022-09-17T12:51:42.611Z,9.80
2022-09-17T12:54:10.972Z,9.90
2022-09-17T12:56:56.818Z,10.30
2022-09-17T12:59:25.475Z,10.60
2022-09-17T13:01:52.534Z,10.80
2022-09-17T13:04:56.849Z,10.90
2022-09-17T13:07:32.039Z,10.90
2022-09-17T13:10:19.350Z,11.10
2022-09-17T13:12:47.626Z,11.30
2022-09-17T13:15:17.878Z,11.30
2022-09-17T13:18:00.865Z,11.40
2022-09-17T13:20:38.074Z,11.00
2022-09-17T13:23:05.091Z,10.70
2022-09-17T13:25:32.121Z,10.70
2022-09-17T13:28:09.175Z,10.60
2022-09-17T13:30:58.473Z,10.40
2022-09-17T13:33:44.463Z,10.40
2022-09-17T13:36:30.406Z,10.50
2022-09-17T13:38:57.447Z,10.30
2022-09-17T13:41:25.574Z,10.00
2022-09-17T13:43:54.300Z,9.90
2022-09-17T13:46:24.875Z,9.80
2022-09-17T13:48:53.823Z,9.90
2022-09-17T13:51:30.249Z,9.90
2022-09-17T13:53:57.859Z,10.10
2022-09-17T13:56:35.204Z,10.20
2022-09-17T13:59:21.019Z,10.20
2022-09-17T14:01:59.275Z,10.30
2022-09-17T14:04:32.430Z,10.40
2022-09-17T14:06:59.639Z,10.50
2022-09-17T14:09:37.285Z,10.70
2022-09-17T14:12:22.915Z,10.80
2022-09-17T14:14:50.946Z,10.90
2022-09-17T14:17:38.261Z,11.00
2022-09-17T14:20:06.083Z,11.10
2022-09-17T14:22:33.115Z,11.20
2022-09-17T14:25:00.162Z,11.30
2022-09-17T14:27:46.066Z,11.40
2022-09-17T14:30:18.350Z,11.30
2022-09-17T14:33:00.748Z,11.30
2022-09-17T14:35:36.976Z,11.20
2022-09-17T14:38:13.083Z,11.10
2022-09-17T14:40:46.998Z,11.10
2022-09-17T14:43:21.622Z,11.10
2022-09-17T14:45:49.637Z,11.20
2022-09-17T14:48:17.061Z,11.40
2022-09-17T14:50:44.155Z,11.60
2022-09-17T14:53:18.363Z,11.60
2022-09-17T14:55:51.438Z,11.50
2022-09-17T14:58:30.093Z,11.30
2022-09-17T15:00:57.379Z,11.10
2022-09-17T15:03:24.510Z,10.50
2022-09-17T15:05:51.642Z,10.00
2022-09-17T15:08:21.089Z,9.80
2022-09-17T15:11:00.506Z,9.70
2022-09-17T15:13:28.452Z,9.70
2022-09-17T15:16:07.672Z,9.70
2022-09-17T15:18:38.008Z,9.70
2022-09-17T15:21:06.769Z,9.60
2022-09-17T15:23:33.839Z,9.50
2022-09-17T15:26:01.107Z,9.40
2022-09-17T15:28:29.819Z,9.30
2022-09-17T15:30:56.851Z,9.30
2022-09-17T15:33:24.340Z,9.20
2022-09-17T15:35:58.307Z,9.20
2022-09-17T15:38:26.623Z,9.20
2022-09-17T15:40:54.000Z,9.10
2022-09-17T15:43:24.111Z,9.20
2022-09-17T15:45:51.130Z,9.20
2022-09-17T15:48:21.237Z,9.20
2022-09-17T15:50:52.337Z,9.30
2022-09-17T15:53:32.279Z,9.30
2022-09-17T15:56:09.471Z,9.40
2022-09-17T15:58:36.521Z,9.40
2022-09-17T16:01:15.886Z,9.40
2022-09-17T16:03:45.882Z,9.40
2022-09-17T16:06:19.304Z,9.50
2022-09-17T16:08:49.366Z,9.40
2022-09-17T16:11:16.536Z,9.40
2022-09-17T16:13:45.615Z,9.30
2022-09-17T16:16:16.258Z,9.30
2022-09-17T16:18:43.299Z,9.30
2022-09-17T16:21:10.717Z,9.30
2022-09-17T16:23:37.743Z,9.20
2022-09-17T16:26:05.171Z,9.20
2022-09-17T16:28:32.178Z,9.20
2022-09-17T16:30:59.224Z,9.20
2022-09-17T16:33:28.144Z,9.10
2022-09-17T16:35:58.238Z,9.10
2022-09-17T16:38:25.526Z,9.00
2022-09-17T16:40:52.694Z,9.00
2022-09-17T16:43:19.716Z,9.00
2022-09-17T16:46:02.649Z,9.10
2022-09-17T16:48:29.668Z,9.10
2022-09-17T16:50:56.742Z,9.10
2022-09-17T16:53:23.753Z,9.10
2022-09-17T16:55:50.743Z,9.00
2022-09-17T16:58:17.762Z,9.00
2022-09-17T17:00:44.951Z,9.00
2022-09-17T17:03:12.826Z,9.00
2022-09-17T17:05:40.113Z,8.90
2022-09-17T17:08:07.733Z,8.80
2022-09-17T17:10:34.982Z,8.80
2022-09-17T17:13:01.979Z,8.80
2022-09-17T17:15:28.989Z,8.70
2022-09-17T17:17:56.135Z,8.70
2022-09-17T17:20:23.439Z,8.60
2022-09-17T17:22:51.926Z,8.60
2022-09-17T17:25:19.051Z,8.60
2022-09-17T17:27:46.111Z,8.50
2022-09-17T17:30:17.112Z,8.50
2022-09-17T17:32:44.434Z,8.40
2022-09-17T17:35:11.435Z,8.40
2022-09-17T17:37:38.444Z,8.40
2022-09-17T17:40:09.058Z,8.40
2022-09-17T17:42:38.221Z,8.30
2022-09-17T17:45:05.854Z,8.30
2022-09-17T17:47:32.990Z,8.30
2022-09-17T17:50:00.018Z,8.20
2022-09-17T17:52:27.890Z,8.20
2022-09-17T17:54:55.146Z,8.20
2022-09-17T17:57:22.147Z,8.10
2022-09-17T17:59:49.154Z,8.10
2022-09-17T18:02:16.421Z,8.10
2022-09-17T18:04:43.598Z,8.10
2022-09-17T18:07:10.595Z,8.10
2022-09-17T18:09:37.675Z,8.10
2022-09-17T18:12:04.827Z,8.00
2022-09-17T18:14:31.834Z,8.00
2022-09-17T18:16:58.869Z,8.00
2022-09-17T18:19:25.871Z,8.00
2022-09-17T18:21:54.047Z,7.90
2022-09-17T18:24:21.139Z,7.90
2022-09-17T18:26:48.158Z,8.00
2022-09-17T18:29:15.199Z,8.00
2022-09-17T18:31:42.347Z,7.90
2022-09-17T18:34:10.248Z,7.90
2022-09-17T18:36:38.765Z,7.90
2022-09-17T18:39:33.244Z,7.90
2022-09-17T18:41:53.483Z,7.90
2022-09-17T18:44:21.824Z,7.90
2022-09-17T18:46:50.185Z,7.90
2022-09-17T18:49:17.551Z,7.90
2022-09-17T18:51:44.560Z,8.00
2022-09-17T18:54:12.694Z,7.90
2022-09-17T18:56:41.335Z,7.90
2022-09-17T18:59:08.636Z,7.90
2022-09-17T19:01:36.017Z,7.90
2022-09-17T19:04:03.146Z,7.90
2022-09-17T19:06:31.323Z,7.90
2022-09-17T19:09:01.503Z,7.90
2022-09-17T19:11:28.635Z,7.90
2022-09-17T19:13:55.760Z,7.90
2022-09-17T19:16:22.938Z,7.90
2022-09-17T19:18:50.053Z,7.90
2022-09-17T19:21:18.041Z,7.90
2022-09-17T19:23:45.835Z,8.00
2022-09-17T19:26:14.519Z,8.00
2022-09-17T19:28:41.531Z,8.00
2022-09-17T19:31:09.497Z,8.00
2022-09-17T19:33:36.599Z,8.00
2022-09-17T19:36:04.487Z,8.00
2022-09-17T19:38:31.550Z,8.00
2022-09-17T19:40:58.856Z,8.00
2022-09-17T19:43:26.485Z,8.10
2022-09-17T19:45:59.672Z,8.00
2022-09-17T19:48:26.899Z,8.10
2022-09-17T19:50:53.923Z,8.00
2022-09-17T19:53:20.991Z,8.00
2022-09-17T19:55:48.020Z,8.10
2022-09-17T19:58:15.093Z,8.10
2022-09-17T20:00:42.219Z,8.10
2022-09-17T20:03:09.509Z,8.20
2022-09-17T20:05:36.549Z,8.20
2022-09-17T20:08:03.953Z,8.20
2022-09-17T20:10:31.189Z,8.30
2022-09-17T20:12:58.679Z,8.40
2022-09-17T20:15:25.694Z,8.50
2022-09-17T20:17:52.711Z,8.50
2022-09-17T20:20:19.706Z,8.60
2022-09-17T20:22:48.106Z,8.70
2022-09-17T20:25:15.155Z,8.70
2022-09-17T20:27:42.147Z,8.70
2022-09-17T20:30:09.395Z,8.70
2022-09-17T20:32:36.393Z,8.60
2022-09-17T20:35:03.426Z,8.50
2022-09-17T20:38:16.123Z,8.40
2022-09-17T20:40:17.487Z,8.30
2022-09-17T20:42:44.703Z,8.30
2022-09-17T20:45:11.726Z,8.20
2022-09-17T20:47:39.219Z,8.20
2022-09-17T20:50:06.405Z,8.20
2022-09-17T20:52:33.401Z,8.20
2022-09-17T20:55:00.396Z,8.20
2022-09-17T20:57:27.483Z,8.20
2022-09-17T20:59:57.555Z,8.20
2022-09-17T21:02:25.415Z,8.10
2022-09-17T21:04:54.039Z,8.20
2022-09-17T21:07:21.075Z,8.20
2022-09-17T21:09:48.146Z,8.10
2022-09-17T21:12:15.167Z,8.10
2022-09-17T21:14:42.353Z,8.10
2022-09-17T21:17:09.357Z,8.10
2022-09-17T21:19:36.406Z,8.10
2022-09-17T21:22:03.473Z,8.10
2022-09-17T21:24:30.457Z,8.10
2022-09-17T21:26:57.490Z,8.10
2022-09-17T21:29:24.498Z,8.00
2022-09-17T21:31:52.898Z,8.00
2022-09-17T21:34:20.022Z,8.00
2022-09-17T21:36:48.159Z,7.90
2022-09-17T21:39:16.061Z,7.90
2022-09-17T21:41:43.667Z,7.80
2022-09-17T21:44:11.247Z,7.80
2022-09-17T21:46:38.479Z,7.80
2022-09-17T21:49:05.643Z,7.70
2022-09-17T21:51:33.980Z,7.60
2022-09-17T21:54:02.971Z,7.50
2022-09-17T21:56:30.100Z,7.40
2022-09-17T21:58:58.193Z,7.40
2022-09-17T22:01:26.200Z,7.30
2022-09-17T22:03:54.599Z,7.30
2022-09-17T22:06:22.666Z,7.20
2022-09-17T22:08:50.088Z,7.10
2022-09-17T22:11:21.309Z,7.00
2022-09-17T22:13:55.307Z,7.10
2022-09-17T22:16:22.841Z,7.00
2022-09-17T22:18:50.281Z,6.90
2022-09-17T22:21:18.534Z,6.90
2022-09-17T22:23:45.561Z,6.90
2022-09-17T22:26:12.619Z,6.90
2022-09-17T22:28:39.756Z,6.80
2022-09-17T22:31:07.803Z,6.80
2022-09-17T22:33:35.535Z,6.80
2022-09-17T22:36:03.810Z,6.80
2022-09-17T22:38:30.943Z,6.80
2022-09-17T22:40:58.002Z,6.70
2022-09-17T22:43:25.708Z,6.70
2022-09-17T22:45:52.686Z,6.70
2022-09-17T22:48:19.691Z,6.70
2022-09-17T22:50:50.638Z,6.70
2022-09-17T22:53:17.915Z,6.70
2022-09-17T22:55:52.975Z,6.80
2022-09-17T22:58:23.742Z,6.80
2022-09-17T23:00:51.529Z,6.80
2022-09-17T23:03:18.663Z,6.80
2022-09-17T23:05:45.735Z,6.80
2022-09-17T23:08:13.689Z,6.80
2022-09-17T23:10:41.719Z,6.80
2022-09-17T23:13:09.394Z,6.80
2022-09-17T23:15:37.001Z,6.80
2022-09-17T23:18:04.935Z,6.90
2022-09-17T23:20:32.244Z,6.90
2022-09-17T23:22:59.526Z,6.90
2022-09-17T23:25:27.291Z,6.90
2022-09-17T23:27:54.793Z,6.90
2022-09-17T23:30:22.387Z,6.90
2022-09-17T23:32:52.475Z,6.90
2022-09-17T23:35:20.042Z,6.90
2022-09-17T23:37:47.842Z,7.00
2022-09-17T23:40:14.907Z,7.00
2022-09-17T23:42:41.965Z,7.00
2022-09-17T23:45:08.999Z,7.00
2022-09-17T23:47:36.007Z,7.00
2022-09-17T23:50:03.291Z,7.00
2022-09-17T23:52:30.295Z,7.10
2022-09-17T23:54:58.530Z,7.10
2022-09-17T23:57:27.630Z,7.20
2022-09-17T23:59:54.618Z,7.20
